KHDN/HDN METAR and TAF weather

Enter ICAO airport designator
Station Type Date Time Source
KHDN METAR 2018/12/11 21:56 UTC NOAA

KHDN 112156Z AUTO 24003KT 10SM CLR M01/M08 A3016 RMK AO2 SLP245 T10061083 FZRANO


Station Type Date Time Source
KHDN Decoded METAR 2018/12/11 21:56 UTC NOAA

Hayden, Yampa Valley Airport, CO, United States (KHDN) 40-29N 107-13W
Dec 11, 2018 - 04:56 PM EST / 2018.12.11 2156 UTC
Wind: from the WSW (240 degrees) at 3 MPH (3 KT):0
Visibility: 10 mile(s):0
Sky conditions: clear
Temperature: 30.9 F (-0.6 C)
Dew Point: 17.1 F (-8.3 C)
Relative Humidity: 55%
Pressure (altimeter): 30.16 in. Hg (1021 hPa)
ob: KHDN 112156Z AUTO 24003KT 10SM CLR M01/M08 A3016 RMK AO2 SLP245 T10061083 FZRANO
cycle: 22

Station Type Date Time Source
KHDN TAF 2018/12/11 18:36 UTC NOAA

TAF KHDN 111734Z 1118/1218 25006KT P6SM FEW090 SCT120
FM112000 29006KT P6SM FEW150
FM120100 12007KT P6SM FEW150 SCT200 WS020/24030KT
FM121100 12007KT P6SM SCT100 BKN150 WS020/25030KT


Example: see airport list